Current Weather

Waukegan

Waukegan, Illinois (KUGN)

Report from: Monday, August 15, 2022 7:55 PM CDT
Current time: Monday, August 15, 2022 8:12 PM CDT

Nearby weather
Weather history
Weather forecast

Temperature20.0°C (68.0°F)
Dew point13.9°C (57.0°F)
Winds 6 kts (3.1 m/s, 6.9 mph) North-Northeast (30°)
Visibility10 mi. (16.1 km)
Clouds Sky clear
Altimeter30.08 in.Hg (1019 mB)
Relative humidity68 %
Density altitude625 ft. (190 m)
Sea-level pressure101.8 kPa (1018 mB, 30.06 in.Hg)
Remarks Automated weather observing station with precipitation discriminator
Last observation of the day
Flight conditions Visual Meteorological Conditions
Raw dataKUGN 160055Z 03006KT 10SM CLR 20/14 A3008 RMK AO2 SLP179 LAST T02000139
An error has occurred. This application may no longer respond until reloaded. Reload 🗙